createdAt,value
2023-01-30T00:02:04.246Z,8.57
2023-01-30T00:05:46.245Z,7.90
2023-01-30T00:09:28.128Z,9.63
2023-01-30T00:13:10.934Z,7.07
2023-01-30T00:16:52.763Z,7.93
2023-01-30T00:20:34.998Z,5.90
2023-01-30T00:24:20.699Z,6.70
2023-01-30T00:28:02.953Z,8.05
2023-01-30T00:31:44.822Z,9.38
2023-01-30T00:35:28.894Z,7.97
2023-01-30T00:39:10.955Z,6.50
2023-01-30T00:47:05.496Z,7.33
2023-01-30T00:50:47.379Z,4.95
2023-01-30T00:54:29.274Z,5.30
2023-01-30T00:58:11.809Z,5.95
2023-01-30T01:01:53.830Z,7.93
2023-01-30T01:05:36.070Z,5.43
2023-01-30T01:09:18.139Z,5.00
2023-01-30T01:13:00.099Z,9.07
2023-01-30T01:16:42.049Z,5.38
2023-01-30T01:20:24.439Z,7.65
2023-01-30T01:24:06.759Z,6.97
2023-01-30T01:27:49.827Z,5.72
2023-01-30T01:31:31.801Z,7.75
2023-01-30T01:35:13.795Z,5.85
2023-01-30T01:38:55.732Z,6.60
2023-01-30T01:42:38.979Z,6.00
2023-01-30T01:46:27.057Z,5.95
2023-01-30T01:50:35.946Z,7.43
2023-01-30T01:54:47.719Z,5.50
2023-01-30T01:58:40.430Z,5.57
2023-01-30T02:02:22.655Z,6.00
2023-01-30T02:06:05.289Z,10.43
2023-01-30T02:09:47.434Z,9.60
2023-01-30T02:13:29.803Z,10.27
2023-01-30T02:17:11.705Z,10.23
2023-01-30T02:21:12.422Z,9.13
2023-01-30T02:25:40.273Z,7.22
2023-01-30T02:29:46.982Z,7.70
2023-01-30T02:33:46.481Z,8.05
2023-01-30T02:37:32.234Z,8.93
2023-01-30T02:41:41.528Z,12.87
2023-01-30T02:45:47.475Z,12.27
2023-01-30T02:49:41.073Z,12.50
2023-01-30T02:53:24.101Z,13.70
2023-01-30T02:57:21.589Z,17.58
2023-01-30T03:01:42.988Z,19.25
2023-01-30T03:05:35.827Z,16.63
2023-01-30T03:09:49.827Z,13.60
2023-01-30T03:13:46.257Z,14.13
2023-01-30T03:17:29.640Z,17.95
2023-01-30T03:21:12.404Z,12.83
2023-01-30T03:24:55.357Z,15.82
2023-01-30T03:28:37.811Z,13.27
2023-01-30T03:32:19.718Z,13.48
2023-01-30T03:36:01.935Z,13.88
2023-01-30T03:39:44.014Z,19.08
2023-01-30T03:43:25.928Z,18.70
2023-01-30T03:47:07.821Z,15.47
2023-01-30T03:50:49.914Z,16.65
2023-01-30T03:54:31.869Z,13.13
2023-01-30T03:58:13.790Z,15.37
2023-01-30T04:01:55.796Z,13.70
2023-01-30T04:05:37.893Z,17.88
2023-01-30T04:09:19.833Z,18.85
2023-01-30T04:13:01.768Z,10.63
2023-01-30T04:16:43.760Z,16.95
2023-01-30T04:20:25.742Z,15.35
2023-01-30T04:24:07.820Z,14.97
2023-01-30T04:27:49.713Z,17.48
2023-01-30T04:31:31.910Z,16.65
2023-01-30T04:35:13.957Z,17.37
2023-01-30T04:38:57.386Z,19.13
2023-01-30T04:42:39.360Z,20.02
2023-01-30T04:46:21.315Z,20.90
2023-01-30T04:50:03.320Z,25.70
2023-01-30T04:53:45.391Z,23.52
2023-01-30T04:57:27.299Z,20.15
2023-01-30T05:01:21.175Z,26.83
2023-01-30T05:05:03.312Z,15.57
2023-01-30T05:08:48.874Z,16.13
2023-01-30T05:12:31.069Z,11.93
2023-01-30T05:16:14.007Z,13.63
2023-01-30T05:19:55.916Z,17.25
2023-01-30T05:23:37.833Z,14.70
2023-01-30T05:27:20.057Z,13.90
2023-01-30T05:31:11.456Z,11.38
2023-01-30T05:34:53.311Z,14.52
2023-01-30T05:38:35.571Z,13.00
2023-01-30T05:42:17.752Z,13.15
2023-01-30T05:46:01.088Z,14.43
2023-01-30T05:49:42.947Z,11.90
2023-01-30T05:53:27.891Z,12.98
2023-01-30T05:57:09.804Z,12.27
2023-01-30T06:00:52.045Z,14.03
2023-01-30T06:04:34.142Z,10.13
2023-01-30T06:08:16.124Z,15.65
2023-01-30T06:11:58.104Z,12.07
2023-01-30T06:15:40.043Z,17.03
2023-01-30T06:19:22.137Z,17.42
2023-01-30T06:23:04.059Z,10.32
2023-01-30T06:26:45.988Z,17.53
2023-01-30T06:30:27.957Z,12.77
2023-01-30T06:34:11.969Z,9.25
2023-01-30T06:37:54.005Z,11.00
2023-01-30T06:41:35.927Z,12.60
2023-01-30T06:45:20.136Z,14.38
2023-01-30T06:49:02.156Z,11.45
2023-01-30T06:52:45.616Z,7.10
2023-01-30T06:56:27.500Z,11.57
2023-01-30T07:00:12.820Z,12.68
2023-01-30T07:03:54.826Z,11.07
2023-01-30T07:07:37.197Z,11.65
2023-01-30T07:11:19.313Z,13.65
2023-01-30T07:15:01.229Z,13.87
2023-01-30T07:18:43.521Z,13.65
2023-01-30T07:22:25.737Z,10.77
2023-01-30T07:26:07.685Z,11.65
2023-01-30T07:29:51.309Z,16.10
2023-01-30T07:33:33.821Z,13.13
2023-01-30T07:37:15.876Z,11.60
2023-01-30T07:40:59.080Z,13.50
2023-01-30T07:44:40.999Z,11.68
2023-01-30T07:48:22.990Z,15.70
2023-01-30T07:52:05.689Z,9.40
2023-01-30T07:55:47.664Z,9.23
2023-01-30T07:59:29.626Z,14.73
2023-01-30T08:03:16.351Z,13.23
2023-01-30T08:06:58.298Z,15.73
2023-01-30T08:10:40.180Z,14.63
2023-01-30T08:14:22.180Z,16.88
2023-01-30T08:18:04.268Z,11.13
2023-01-30T08:21:46.167Z,13.13
2023-01-30T08:25:29.294Z,19.10
2023-01-30T08:29:11.240Z,9.80
2023-01-30T08:32:53.304Z,11.88
2023-01-30T08:36:35.347Z,9.95
2023-01-30T08:40:17.751Z,11.52
2023-01-30T08:43:59.867Z,10.07
2023-01-30T08:47:41.935Z,15.13
2023-01-30T08:51:23.883Z,9.90
2023-01-30T08:55:06.205Z,11.87
2023-01-30T08:58:49.633Z,11.65
2023-01-30T09:02:48.701Z,8.93
2023-01-30T09:06:31.001Z,17.23
2023-01-30T09:10:37.226Z,11.60
2023-01-30T09:14:20.023Z,14.75
2023-01-30T09:18:02.029Z,29.65
2023-01-30T09:21:53.521Z,26.80
2023-01-30T09:25:35.492Z,17.52
2023-01-30T09:29:17.789Z,18.50
2023-01-30T09:33:31.655Z,13.93
2023-01-30T09:41:37.544Z,11.20
2023-01-30T09:45:29.579Z,12.50
2023-01-30T09:50:01.300Z,14.63
2023-01-30T09:54:05.069Z,15.98
2023-01-30T09:57:59.472Z,12.15
2023-01-30T10:01:56.828Z,10.60
2023-01-30T10:05:46.701Z,16.92
2023-01-30T10:09:34.960Z,15.27
2023-01-30T10:14:02.633Z,12.20
2023-01-30T10:18:33.614Z,10.20
2023-01-30T10:22:40.182Z,12.10
2023-01-30T10:26:25.742Z,9.13
2023-01-30T10:34:33.042Z,12.15
2023-01-30T10:38:49.588Z,9.20
2023-01-30T10:43:19.693Z,8.97
2023-01-30T10:47:50.098Z,11.65
2023-01-30T10:52:20.579Z,16.50
2023-01-30T10:56:51.108Z,16.92
2023-01-30T11:01:22.431Z,10.32
2023-01-30T11:05:28.546Z,12.53
2023-01-30T11:09:10.754Z,9.75
2023-01-30T11:17:18.688Z,12.00
2023-01-30T11:21:43.599Z,10.07
2023-01-30T11:29:43.613Z,13.15
2023-01-30T11:34:02.025Z,13.63
2023-01-30T11:41:57.750Z,14.63
2023-01-30T11:46:01.362Z,13.73
2023-01-30T11:50:00.663Z,13.52
2023-01-30T11:54:05.916Z,13.02
2023-01-30T11:57:54.043Z,14.00
2023-01-30T12:02:12.362Z,10.60
2023-01-30T12:10:00.281Z,10.75
2023-01-30T12:13:47.308Z,13.57
2023-01-30T12:17:57.772Z,11.77
2023-01-30T12:22:04.041Z,13.18
2023-01-30T12:34:36.225Z,10.15
2023-01-30T12:43:28.774Z,11.02
2023-01-30T13:27:28.629Z,11.63
2023-01-30T13:44:33.922Z,13.07
2023-01-30T13:48:50.004Z,13.32
2023-01-30T14:01:14.827Z,9.70
2023-01-30T14:04:57.933Z,13.27
2023-01-30T14:09:25.661Z,11.80
2023-01-30T14:13:53.996Z,16.30
2023-01-30T14:18:07.734Z,12.07
2023-01-30T14:26:03.816Z,14.98
2023-01-30T14:38:41.795Z,11.45
2023-01-30T14:50:50.712Z,12.55
2023-01-30T14:58:37.657Z,14.40
2023-01-30T15:06:50.737Z,14.88
2023-01-30T15:19:08.357Z,8.10
2023-01-30T15:23:25.719Z,6.97
2023-01-30T15:31:24.342Z,10.25
2023-01-30T15:39:29.138Z,15.20
2023-01-30T15:43:42.436Z,11.35
2023-01-30T15:51:38.533Z,7.43
2023-01-30T15:59:36.088Z,9.77
2023-01-30T16:17:31.750Z,12.65
2023-01-30T16:25:34.631Z,13.30
2023-01-30T16:34:27.677Z,18.15
2023-01-30T16:42:32.695Z,12.50
2023-01-30T16:51:27.133Z,14.18
2023-01-30T17:03:53.491Z,16.15
2023-01-30T17:07:39.313Z,18.50
2023-01-30T17:11:34.952Z,14.07
2023-01-30T17:15:17.352Z,12.90
2023-01-30T17:19:00.973Z,17.50
2023-01-30T17:22:45.353Z,21.93
2023-01-30T17:26:27.906Z,11.48
2023-01-30T17:30:18.308Z,11.10
2023-01-30T17:34:00.445Z,12.65
2023-01-30T17:37:45.301Z,18.92
2023-01-30T17:41:31.156Z,16.25
2023-01-30T17:45:13.296Z,18.17
2023-01-30T17:48:56.245Z,23.57
2023-01-30T17:52:38.143Z,16.88
2023-01-30T17:56:26.906Z,15.30
2023-01-30T18:00:16.717Z,14.47
2023-01-30T18:03:58.908Z,15.05
2023-01-30T18:07:41.431Z,14.77
2023-01-30T18:11:23.571Z,17.37
2023-01-30T18:15:05.945Z,17.88
2023-01-30T18:18:48.037Z,13.23
2023-01-30T18:22:29.957Z,18.92
2023-01-30T18:26:13.007Z,13.83
2023-01-30T18:29:55.096Z,18.98
2023-01-30T18:33:37.609Z,16.90
2023-01-30T18:37:19.517Z,17.73
2023-01-30T18:41:08.739Z,16.73
2023-01-30T18:44:50.877Z,16.55
2023-01-30T18:48:33.895Z,15.87
2023-01-30T18:52:15.812Z,11.20
2023-01-30T18:55:58.221Z,13.77
2023-01-30T18:59:41.212Z,16.15
2023-01-30T19:03:23.689Z,17.60
2023-01-30T19:07:05.979Z,11.18
2023-01-30T19:10:47.917Z,12.10
2023-01-30T19:14:29.810Z,12.37
2023-01-30T19:18:11.726Z,14.93
2023-01-30T19:21:53.819Z,13.23
2023-01-30T19:25:36.871Z,16.30
2023-01-30T19:29:18.759Z,13.18
2023-01-30T19:33:00.680Z,13.52
2023-01-30T19:36:42.686Z,12.05
2023-01-30T19:40:24.586Z,14.50
2023-01-30T19:44:08.394Z,11.77
2023-01-30T19:47:50.579Z,17.27
2023-01-30T19:51:35.538Z,18.23
2023-01-30T19:55:19.064Z,13.27
2023-01-30T19:59:01.762Z,16.77
2023-01-30T20:02:43.787Z,12.20
2023-01-30T20:06:29.305Z,21.48
2023-01-30T20:10:11.336Z,18.77
2023-01-30T20:13:56.347Z,14.70
2023-01-30T20:17:38.307Z,13.80
2023-01-30T20:21:21.680Z,18.75
2023-01-30T20:25:03.775Z,16.33
2023-01-30T20:28:45.805Z,17.17
2023-01-30T20:32:28.015Z,18.15
2023-01-30T20:36:12.887Z,15.38
2023-01-30T20:39:55.455Z,13.10
2023-01-30T20:43:39.691Z,12.07
2023-01-30T20:47:21.827Z,14.40
2023-01-30T20:51:09.593Z,17.15
2023-01-30T20:54:51.642Z,15.30
2023-01-30T20:58:33.825Z,16.05
2023-01-30T21:02:16.129Z,11.80
2023-01-30T21:05:59.093Z,14.60
2023-01-30T21:09:41.024Z,11.05
2023-01-30T21:13:24.561Z,16.52
2023-01-30T21:17:06.563Z,12.47
2023-01-30T21:20:49.792Z,15.82
2023-01-30T21:24:32.223Z,16.30
2023-01-30T21:28:14.297Z,11.93
2023-01-30T21:31:57.407Z,14.90
2023-01-30T21:35:39.400Z,10.85
2023-01-30T21:39:39.567Z,11.32
2023-01-30T21:43:21.773Z,9.63
2023-01-30T21:47:05.109Z,17.02
2023-01-30T21:50:49.056Z,16.95
2023-01-30T21:54:31.099Z,15.20
2023-01-30T21:58:12.978Z,15.02
2023-01-30T22:01:54.984Z,14.75
2023-01-30T22:05:37.787Z,12.57
2023-01-30T22:09:20.296Z,15.10
2023-01-30T22:13:02.240Z,15.35
2023-01-30T22:16:44.406Z,12.75
2023-01-30T22:20:26.313Z,17.83
2023-01-30T22:24:11.347Z,18.42
2023-01-30T22:27:53.277Z,15.25
2023-01-30T22:31:38.780Z,17.63
2023-01-30T22:35:21.102Z,17.25
2023-01-30T22:39:04.526Z,15.00
2023-01-30T22:42:48.538Z,20.13
2023-01-30T22:46:33.950Z,15.80
2023-01-30T22:50:16.269Z,14.55
2023-01-30T22:54:00.785Z,14.30
2023-01-30T22:57:42.674Z,17.90
2023-01-30T23:01:30.146Z,15.07
2023-01-30T23:05:12.148Z,15.50
2023-01-30T23:08:55.396Z,19.60
2023-01-30T23:12:55.721Z,18.63
2023-01-30T23:16:40.368Z,16.67
2023-01-30T23:20:22.460Z,20.90
2023-01-30T23:24:16.171Z,17.03
2023-01-30T23:27:58.148Z,12.63
2023-01-30T23:31:41.817Z,13.15
2023-01-30T23:35:23.775Z,12.17
2023-01-30T23:39:05.832Z,17.55
2023-01-30T23:42:47.713Z,17.98
2023-01-30T23:46:33.476Z,14.43
2023-01-30T23:50:15.510Z,14.10
2023-01-30T23:53:58.248Z,16.00
2023-01-30T23:57:40.121Z,16.98
